Observations for BARI PALESE MACCHIE, Italy (LIBD)

LIBD 242120Z 33012KT 290V350 9999 SCT030 SCT045 19/12 Q1021 
LIBD 242050Z 35014G26KT 9999 -DZ SCT030 19/14 Q1021 
LIBD 242020Z 01015KT 9999 SCT025 21/12 Q1021
LIBD 241950Z 01015KT 9999 SCT025 21/13 Q1020
LIBD 241920Z 01015KT 9999 SCT020 21/14 Q1019
LIBD 241850Z 02011KT 9999 SCT020 22/15 Q1019
LIBD 241820Z 03010KT 9999 SCT020 22/15 Q1018
LIBD 241750Z 04010KT 9999 SCT015 22/17 Q1017
LIBD 241720Z 06012KT 9999 SCT015 22/19 Q1016
LIBD 241650Z 06012KT 9999 FEW015 23/19 Q1015
LIBD 241620Z 05014KT 9999 FEW045 23/19 Q1015
LIBD 241550Z 02014KT 9999 FEW045 26/19 Q1014
LIBD 241520Z 03010KT 9999 FEW045 27/19 Q1014
LIBD 241450Z 03010KT 360V060 9999 FEW045 27/18 Q1014
LIBD 241420Z 36011KT 9999 SCT045 27/17 Q1014
LIBD 241350Z 36012KT 9999 SCT045 27/16 Q1013
LIBD 241320Z 36010KT 9999 FEW045 29/15 Q1013
LIBD 241250Z 36011KT 9999 SCT045 30/13 Q1013
LIBD 241220Z 35016KT 9999 SCT045 29/13 Q1013
LIBD 241150Z 35013KT 9999 SCT045 30/15 Q1013
LIBD 241120Z 34013KT 9999 FEW045 30/15 Q1013
LIBD 241050Z 36009KT 310V050 9999 SCT045 28/17 Q1013
LIBD 241020Z 01009KT 340V040 9999 SCT030 28/17 Q1013
LIBD 240950Z 03008KT 360V070 9999 SCT030 28/17 Q1013
LIBD 240920Z 02006KT 280V060 9999 FEW030 28/16 Q1014
LIBD 240850Z 02007KT 340V050 CAVOK 28/15 Q1014  
LIBD 240820Z 02008KT 350V060 CAVOK 27/15 Q1014  
LIBD 240750Z 33004KT 280V030 CAVOK 27/15 Q1013  
LIBD 240720Z VRB03KT CAVOK 27/15 Q1013  
LIBD 240650Z VRB03KT CAVOK 26/15 Q1013  
LIBD 240620Z 19004KT 150V230 CAVOK 24/15 Q1013  
LIBD 240550Z VRB03KT CAVOK 23/15 Q1013  
LIBD 240520Z 21006KT CAVOK 22/14 Q1013  
LIBD 240450Z 22007KT CAVOK 20/15 Q1013  
LIBD 240420Z VRB03KT CAVOK 19/15 Q1013  
LIBD 240350Z VRB03KT CAVOK 20/16 Q1013  
LIBD 240320Z VRB03KT CAVOK 21/16 Q1013  
LIBD 240250Z 24005KT CAVOK 23/16 Q1014  
LIBD 240220Z 22005KT CAVOK 23/15 Q1014  
LIBD 240050Z 21005KT CAVOK 22/17 Q1014  
LIBD 240020Z 21005KT CAVOK 22/17 Q1014  
LIBD 232320Z 22006KT 190V250 CAVOK 23/15 Q1015  
LIBD 232250Z 22004KT CAVOK 23/13 Q1015  
LIBD 232220Z 21004KT CAVOK 22/14 Q1016  
LIBD 232150Z 21004KT CAVOK 23/14 Q1016  
LIBD 232120Z 22004KT CAVOK 23/15 Q1016  
LIBD 232050Z 21004KT CAVOK 24/15 Q1016